createdAt,value
2022-08-23T00:00:16.141Z,55.63
2022-08-23T00:02:45.743Z,55.63
2022-08-23T00:05:15.252Z,55.94
2022-08-23T00:07:44.231Z,55.60
2022-08-23T00:10:14.872Z,55.67
2022-08-23T00:12:46.645Z,55.65
2022-08-23T00:15:17.368Z,56.15
2022-08-23T00:17:47.413Z,56.46
2022-08-23T00:20:18.424Z,56.08
2022-08-23T00:22:48.062Z,55.83
2022-08-23T00:25:18.700Z,55.79
2022-08-23T00:27:48.519Z,55.42
2022-08-23T00:30:19.397Z,55.55
2022-08-23T00:32:49.827Z,56.07
2022-08-23T00:35:26.872Z,55.58
2022-08-23T00:38:30.419Z,56.17
2022-08-23T00:40:45.543Z,55.54
2022-08-23T00:43:49.517Z,55.74
2022-08-23T00:46:49.940Z,56.35
2022-08-23T00:49:21.157Z,56.20
2022-08-23T00:52:08.839Z,55.76
2022-08-23T00:54:39.902Z,55.81
2022-08-23T00:57:12.103Z,56.22
2022-08-23T01:00:11.707Z,56.19
2022-08-23T01:02:40.631Z,56.10
2022-08-23T01:05:25.827Z,56.51
2022-08-23T01:08:02.529Z,56.30
2022-08-23T01:10:43.167Z,55.86
2022-08-23T01:13:23.397Z,56.16
2022-08-23T01:16:11.293Z,56.18
2022-08-23T01:18:43.374Z,55.98
2022-08-23T01:21:17.057Z,55.92
2022-08-23T01:25:22.765Z,56.41
2022-08-23T01:27:57.578Z,56.12
2022-08-23T01:30:28.517Z,56.39
2022-08-23T01:33:03.564Z,56.08
2022-08-23T01:35:42.337Z,55.80
2022-08-23T01:38:15.170Z,56.00
2022-08-23T01:40:43.698Z,55.05
2022-08-23T01:43:14.095Z,56.25
2022-08-23T01:45:43.053Z,56.01
2022-08-23T01:48:20.637Z,56.38
2022-08-23T01:50:48.808Z,56.13
2022-08-23T01:53:16.942Z,56.50
2022-08-23T01:55:58.122Z,56.58
2022-08-23T01:58:40.720Z,56.85
2022-08-23T02:01:11.920Z,56.59
2022-08-23T02:03:39.766Z,56.48
2022-08-23T02:06:14.817Z,56.67
2022-08-23T02:09:03.988Z,56.17
2022-08-23T02:11:46.125Z,56.58
2022-08-23T02:14:21.189Z,57.08
2022-08-23T02:17:04.501Z,56.78
2022-08-23T02:19:37.330Z,56.73
2022-08-23T02:22:08.249Z,56.82
2022-08-23T02:24:54.057Z,57.12
2022-08-23T02:27:25.880Z,56.90
2022-08-23T02:30:02.041Z,56.72
2022-08-23T02:32:31.558Z,56.73
2022-08-23T02:35:05.117Z,56.69
2022-08-23T02:37:39.298Z,57.24
2022-08-23T02:40:08.554Z,57.19
2022-08-23T02:42:40.345Z,57.28
2022-08-23T02:45:13.592Z,56.84
2022-08-23T02:48:02.571Z,57.29
2022-08-23T02:50:45.139Z,57.04
2022-08-23T02:53:12.997Z,57.22
2022-08-23T02:55:45.823Z,57.09
2022-08-23T02:58:21.642Z,57.57
2022-08-23T03:00:53.245Z,57.08
2022-08-23T03:03:23.945Z,58.13
2022-08-23T03:05:51.528Z,57.53
2022-08-23T03:08:23.219Z,57.47
2022-08-23T03:10:52.935Z,57.45
2022-08-23T03:13:21.516Z,57.69
2022-08-23T03:15:50.891Z,57.94
2022-08-23T03:18:18.559Z,58.03
2022-08-23T03:20:52.283Z,57.67
2022-08-23T03:23:19.746Z,57.62
2022-08-23T03:25:47.419Z,57.47
2022-08-23T03:28:22.480Z,57.59
2022-08-23T03:30:50.541Z,57.60
2022-08-23T03:33:18.529Z,57.73
2022-08-23T03:35:47.932Z,57.56
2022-08-23T03:38:16.495Z,57.43
2022-08-23T03:40:44.727Z,57.80
2022-08-23T03:43:17.941Z,57.63
2022-08-23T03:45:45.464Z,57.86
2022-08-23T03:48:15.561Z,58.07
2022-08-23T03:50:43.310Z,57.96
2022-08-23T03:53:12.248Z,58.07
2022-08-23T03:55:45.588Z,58.30
2022-08-23T03:58:18.309Z,58.22
2022-08-23T04:00:46.100Z,58.41
2022-08-23T04:03:16.741Z,58.05
2022-08-23T04:06:03.773Z,58.18
2022-08-23T04:08:34.791Z,58.29
2022-08-23T04:11:05.137Z,58.48
2022-08-23T04:13:36.836Z,58.13
2022-08-23T04:16:07.496Z,58.44
2022-08-23T04:18:35.250Z,58.18
2022-08-23T04:21:10.329Z,58.40
2022-08-23T04:23:42.639Z,58.22
2022-08-23T04:26:14.401Z,58.18
2022-08-23T04:28:43.117Z,57.72
2022-08-23T04:31:11.091Z,58.24
2022-08-23T04:33:44.250Z,58.17
2022-08-23T04:36:15.714Z,57.88
2022-08-23T04:38:43.617Z,58.28
2022-08-23T04:41:34.128Z,58.21
2022-08-23T04:44:01.856Z,58.16
2022-08-23T04:46:33.623Z,58.31
2022-08-23T04:49:02.281Z,58.19
2022-08-23T04:51:32.795Z,58.05
2022-08-23T04:54:00.084Z,57.98
2022-08-23T04:56:59.705Z,57.88
2022-08-23T04:59:27.198Z,58.13
2022-08-23T05:01:54.516Z,58.12
2022-08-23T05:04:26.554Z,58.21
2022-08-23T05:06:54.014Z,58.20
2022-08-23T05:09:22.036Z,58.16
2022-08-23T05:11:51.616Z,58.33
2022-08-23T05:14:19.727Z,58.52
2022-08-23T05:16:50.146Z,58.42
2022-08-23T05:19:19.447Z,58.48
2022-08-23T05:21:47.965Z,58.72
2022-08-23T05:24:16.461Z,58.54
2022-08-23T05:26:46.663Z,58.57
2022-08-23T05:29:14.074Z,59.09
2022-08-23T05:31:56.287Z,58.73
2022-08-23T05:34:26.037Z,58.79
2022-08-23T05:36:56.631Z,58.64
2022-08-23T05:39:36.487Z,58.90
2022-08-23T05:42:12.544Z,59.09
2022-08-23T05:44:40.038Z,59.14
2022-08-23T05:47:12.126Z,58.77
2022-08-23T05:49:56.504Z,59.01
2022-08-23T05:52:27.674Z,59.03
2022-08-23T05:54:56.116Z,59.04
2022-08-23T05:57:38.663Z,59.19
2022-08-23T06:00:16.106Z,58.95
2022-08-23T06:02:47.036Z,59.16
2022-08-23T06:05:16.647Z,59.28
2022-08-23T06:07:48.493Z,58.99
2022-08-23T06:10:24.522Z,59.02
2022-08-23T06:13:03.528Z,59.27
2022-08-23T06:15:32.437Z,59.11
2022-08-23T06:18:02.882Z,58.91
2022-08-23T06:20:34.396Z,58.91
2022-08-23T06:23:08.673Z,58.71
2022-08-23T06:25:42.677Z,58.87
2022-08-23T06:28:15.273Z,59.16
2022-08-23T06:30:43.857Z,58.99
2022-08-23T06:33:14.081Z,58.95
2022-08-23T06:35:41.897Z,58.95
2022-08-23T06:38:13.385Z,58.69
2022-08-23T06:40:54.306Z,58.13
2022-08-23T06:43:30.571Z,58.39
2022-08-23T06:46:23.766Z,58.30
2022-08-23T06:48:54.138Z,58.84
2022-08-23T06:51:36.492Z,57.77
2022-08-23T06:54:20.952Z,57.82
2022-08-23T06:56:52.519Z,57.96
2022-08-23T06:59:28.655Z,57.69
2022-08-23T07:02:28.123Z,57.43
2022-08-23T07:04:58.510Z,57.20
2022-08-23T07:07:44.798Z,56.90
2022-08-23T07:10:16.053Z,56.51
2022-08-23T07:12:44.511Z,56.44
2022-08-23T07:15:16.632Z,56.57
2022-08-23T07:17:45.481Z,56.16
2022-08-23T07:20:16.036Z,56.36
2022-08-23T07:22:45.709Z,56.22
2022-08-23T07:25:17.207Z,55.41
2022-08-23T07:27:49.293Z,55.05
2022-08-23T07:30:24.906Z,55.67
2022-08-23T07:32:52.462Z,55.34
2022-08-23T07:35:22.591Z,55.75
2022-08-23T07:37:56.758Z,55.48
2022-08-23T07:40:30.532Z,55.05
2022-08-23T07:43:04.456Z,55.48
2022-08-23T07:45:39.201Z,54.85
2022-08-23T07:48:10.725Z,54.70
2022-08-23T07:51:07.467Z,53.94
2022-08-23T07:53:38.133Z,53.70
2022-08-23T07:56:10.208Z,53.80
2022-08-23T07:58:58.922Z,53.47
2022-08-23T08:01:56.713Z,52.60
2022-08-23T08:04:29.544Z,51.86
2022-08-23T08:07:18.349Z,52.27
2022-08-23T08:09:49.665Z,51.59
2022-08-23T08:12:17.933Z,51.53
2022-08-23T08:14:52.169Z,50.96
2022-08-23T08:17:29.348Z,49.95
2022-08-23T08:20:15.897Z,49.79
2022-08-23T08:22:59.188Z,48.99
2022-08-23T08:25:48.211Z,49.05
2022-08-23T08:28:18.798Z,47.92
2022-08-23T08:30:48.978Z,47.27
2022-08-23T08:33:16.802Z,45.32
2022-08-23T08:35:56.185Z,45.14
2022-08-23T08:38:38.736Z,43.69
2022-08-23T08:41:20.715Z,42.70
2022-08-23T08:43:56.510Z,42.71
2022-08-23T08:46:39.040Z,41.74
2022-08-23T08:49:14.324Z,41.37
2022-08-23T08:51:57.502Z,40.68
2022-08-23T08:54:26.119Z,40.42
2022-08-23T08:57:02.397Z,43.53
2022-08-23T08:59:59.283Z,43.79
2022-08-23T09:02:36.390Z,44.16
2022-08-23T09:05:16.985Z,43.93
2022-08-23T09:08:04.268Z,43.08
2022-08-23T09:11:08.365Z,41.61
2022-08-23T09:13:56.237Z,41.48
2022-08-23T09:16:36.937Z,41.76
2022-08-23T09:19:05.032Z,42.24
2022-08-23T09:21:55.021Z,41.90
2022-08-23T09:24:23.275Z,42.71
2022-08-23T09:27:20.524Z,42.01
2022-08-23T09:29:58.741Z,41.24
2022-08-23T09:32:43.428Z,40.79
2022-08-23T09:35:25.179Z,41.37
2022-08-23T09:38:16.713Z,41.46
2022-08-23T09:40:51.483Z,41.80
2022-08-23T09:43:26.482Z,41.70
2022-08-23T09:46:02.136Z,41.79
2022-08-23T09:48:40.719Z,40.53
2022-08-23T09:51:34.968Z,39.29
2022-08-23T09:54:11.910Z,38.68
2022-08-23T09:56:48.367Z,38.29
2022-08-23T09:59:27.449Z,37.53
2022-08-23T10:02:06.291Z,38.30
2022-08-23T10:04:47.176Z,38.81
2022-08-23T10:07:30.303Z,38.68
2022-08-23T10:10:17.810Z,38.41
2022-08-23T10:12:49.098Z,37.99
2022-08-23T10:15:21.471Z,37.19
2022-08-23T10:18:43.314Z,37.46
2022-08-23T10:22:00.288Z,36.99
2022-08-23T10:25:21.530Z,36.47
2022-08-23T10:28:42.550Z,39.20
2022-08-23T10:31:38.468Z,38.57
2022-08-23T10:34:41.539Z,37.73
2022-08-23T10:37:40.221Z,38.58
2022-08-23T10:40:23.360Z,38.32
2022-08-23T10:43:02.324Z,39.68
2022-08-23T10:45:35.380Z,37.73
2022-08-23T10:48:32.672Z,37.61
2022-08-23T10:51:11.982Z,38.54
2022-08-23T10:53:56.451Z,40.01
2022-08-23T10:56:28.981Z,40.46
2022-08-23T10:59:24.391Z,39.16
2022-08-23T11:02:02.180Z,39.12
2022-08-23T11:04:59.742Z,39.13
2022-08-23T11:07:41.481Z,39.18
2022-08-23T11:10:26.580Z,40.14
2022-08-23T11:13:06.669Z,39.53
2022-08-23T11:15:49.122Z,39.98
2022-08-23T11:18:44.551Z,40.50
2022-08-23T11:21:34.944Z,40.78
2022-08-23T11:24:06.445Z,40.52
2022-08-23T11:26:41.719Z,39.92
2022-08-23T11:29:28.496Z,39.19
2022-08-23T11:32:38.253Z,38.86
2022-08-23T11:35:43.215Z,39.56
2022-08-23T11:38:17.306Z,40.61
2022-08-23T11:40:57.879Z,41.15
2022-08-23T11:43:42.993Z,40.17
2022-08-23T11:46:27.386Z,39.31
2022-08-23T11:49:14.619Z,38.59
2022-08-23T11:52:08.627Z,39.59
2022-08-23T11:54:42.210Z,39.53
2022-08-23T11:57:21.156Z,40.25
2022-08-23T12:00:02.595Z,40.06
2022-08-23T12:02:42.357Z,39.46
2022-08-23T12:05:18.420Z,39.56
2022-08-23T12:07:55.956Z,41.51
2022-08-23T12:10:44.048Z,41.06
2022-08-23T12:13:23.269Z,40.67
2022-08-23T12:16:17.907Z,41.91
2022-08-23T12:18:58.023Z,43.00
2022-08-23T12:21:32.942Z,41.83
2022-08-23T12:24:14.500Z,41.21
2022-08-23T12:26:47.594Z,42.33
2022-08-23T12:29:17.760Z,40.98
2022-08-23T12:31:58.934Z,41.62
2022-08-23T12:34:40.363Z,41.78
2022-08-23T12:37:13.045Z,40.72
2022-08-23T12:39:50.848Z,42.47
2022-08-23T12:42:29.631Z,42.10
2022-08-23T12:45:06.563Z,41.65
2022-08-23T12:47:46.079Z,42.96
2022-08-23T12:50:15.018Z,42.48
2022-08-23T12:52:42.839Z,42.90
2022-08-23T12:55:19.675Z,42.04
2022-08-23T12:58:02.183Z,43.03
2022-08-23T13:00:39.089Z,42.78
2022-08-23T13:03:38.703Z,43.81
2022-08-23T13:06:11.949Z,44.38
2022-08-23T13:08:41.240Z,43.89
2022-08-23T13:11:10.478Z,43.35
2022-08-23T13:13:40.872Z,43.22
2022-08-23T13:16:47.275Z,44.51
2022-08-23T13:19:34.549Z,45.09
2022-08-23T13:22:20.566Z,43.85
2022-08-23T13:25:28.163Z,43.38
2022-08-23T13:28:26.214Z,44.41
2022-08-23T13:31:08.999Z,43.24
2022-08-23T13:33:40.995Z,41.14
2022-08-23T13:36:16.710Z,43.13
2022-08-23T13:38:47.468Z,43.55
2022-08-23T13:41:38.645Z,42.01
2022-08-23T13:44:19.074Z,42.51
2022-08-23T13:46:48.233Z,43.00
2022-08-23T13:49:24.862Z,42.08
2022-08-23T13:54:50.943Z,41.88
2022-08-23T13:57:22.775Z,43.41
2022-08-23T13:59:54.486Z,42.52
2022-08-23T14:02:24.195Z,42.60
2022-08-23T14:04:54.654Z,42.62
2022-08-23T14:07:21.888Z,44.04
2022-08-23T14:09:55.313Z,42.95
2022-08-23T14:12:28.163Z,42.46
2022-08-23T14:15:13.691Z,43.53
2022-08-23T14:17:56.652Z,45.25
2022-08-23T14:20:43.768Z,43.98
2022-08-23T14:23:14.925Z,44.50
2022-08-23T14:25:51.636Z,43.61
2022-08-23T14:28:21.719Z,42.66
2022-08-23T14:30:59.320Z,43.40
2022-08-23T14:33:49.745Z,44.09
2022-08-23T14:36:23.588Z,43.27
2022-08-23T14:39:03.233Z,44.43
2022-08-23T14:41:34.445Z,43.37
2022-08-23T14:44:15.838Z,42.34
2022-08-23T14:46:52.088Z,42.45
2022-08-23T14:49:41.007Z,43.01
2022-08-23T14:52:19.034Z,43.87
2022-08-23T14:54:55.177Z,42.78
2022-08-23T14:57:26.097Z,43.45
2022-08-23T15:00:25.150Z,42.50
2022-08-23T15:03:17.772Z,41.94
2022-08-23T15:06:18.115Z,42.47
2022-08-23T15:15:10.854Z,42.17
2022-08-23T15:18:05.657Z,42.08
2022-08-23T15:21:03.171Z,42.42
2022-08-23T15:23:42.829Z,42.69
2022-08-23T15:26:33.021Z,41.54
2022-08-23T15:32:32.523Z,40.88
2022-08-23T15:35:12.829Z,41.09
2022-08-23T15:38:13.781Z,39.71
2022-08-23T15:40:55.257Z,41.67
2022-08-23T15:43:35.302Z,39.64
2022-08-23T15:46:21.045Z,40.25
2022-08-23T15:51:54.777Z,39.86
2022-08-23T15:54:25.402Z,40.18
2022-08-23T15:57:14.046Z,40.34
2022-08-23T15:59:51.086Z,40.99
2022-08-23T16:03:13.983Z,40.37
2022-08-23T16:05:46.821Z,40.58
2022-08-23T16:08:35.554Z,40.79
2022-08-23T16:11:17.405Z,41.47
2022-08-23T16:14:03.728Z,41.60
2022-08-23T16:16:41.624Z,42.04
2022-08-23T16:19:16.858Z,41.36
2022-08-23T16:21:48.738Z,41.94
2022-08-23T16:24:22.483Z,42.05
2022-08-23T16:27:02.320Z,41.75
2022-08-23T16:29:39.096Z,41.36
2022-08-23T16:32:13.109Z,42.60
2022-08-23T16:34:45.181Z,42.17
2022-08-23T16:37:18.238Z,42.05
2022-08-23T16:39:54.786Z,42.18
2022-08-23T16:42:29.707Z,42.06
2022-08-23T16:45:02.144Z,42.33
2022-08-23T16:47:38.477Z,44.11
2022-08-23T16:50:28.577Z,43.36
2022-08-23T16:53:10.926Z,43.42
2022-08-23T16:55:49.749Z,43.29
2022-08-23T16:58:23.250Z,43.20
2022-08-23T17:00:56.356Z,43.26
2022-08-23T17:03:28.712Z,43.90
2022-08-23T17:06:04.183Z,42.65
2022-08-23T17:08:47.818Z,42.92
2022-08-23T17:11:20.147Z,42.76
2022-08-23T17:14:09.956Z,43.37
2022-08-23T17:16:45.739Z,44.22
2022-08-23T17:19:16.424Z,43.20
2022-08-23T17:21:58.038Z,43.07
2022-08-23T17:24:33.713Z,45.15
2022-08-23T17:27:05.522Z,45.86
2022-08-23T17:29:37.455Z,44.19
2022-08-23T17:32:10.961Z,44.83
2022-08-23T17:34:42.840Z,45.16
2022-08-23T17:37:35.254Z,45.24
2022-08-23T17:40:09.975Z,46.02
2022-08-23T17:42:49.363Z,45.98
2022-08-23T17:45:20.905Z,45.80
2022-08-23T17:47:59.096Z,45.33
2022-08-23T17:50:37.829Z,46.05
2022-08-23T17:53:18.853Z,45.25
2022-08-23T17:56:10.391Z,46.02
2022-08-23T17:58:50.240Z,44.90
2022-08-23T18:01:20.728Z,44.89
2022-08-23T18:03:54.304Z,44.68
2022-08-23T18:06:39.756Z,44.39
2022-08-23T18:09:10.447Z,44.67
2022-08-23T18:11:39.515Z,44.48
2022-08-23T18:14:14.207Z,45.75
2022-08-23T18:16:44.108Z,45.50
2022-08-23T18:19:24.889Z,44.77
2022-08-23T18:21:58.592Z,45.05
2022-08-23T18:24:32.447Z,45.43
2022-08-23T18:27:27.433Z,44.82
2022-08-23T18:30:00.557Z,45.02
2022-08-23T18:32:29.046Z,44.73
2022-08-23T18:35:06.990Z,45.14
2022-08-23T18:37:38.260Z,44.58
2022-08-23T18:40:29.821Z,45.23
2022-08-23T18:43:10.715Z,46.25
2022-08-23T18:45:45.045Z,45.77
2022-08-23T18:48:19.693Z,45.72
2022-08-23T18:50:53.502Z,46.14
2022-08-23T18:53:33.916Z,46.12
2022-08-23T18:56:14.656Z,46.81
2022-08-23T18:58:51.283Z,47.18
2022-08-23T19:01:36.527Z,47.51
2022-08-23T19:04:19.251Z,47.94
2022-08-23T19:06:54.856Z,48.12
2022-08-23T19:09:25.685Z,48.77
2022-08-23T19:12:02.593Z,48.60
2022-08-23T19:14:35.995Z,48.71
2022-08-23T19:17:18.727Z,48.12
2022-08-23T19:19:56.098Z,49.14
2022-08-23T19:22:38.016Z,48.18
2022-08-23T19:25:11.696Z,48.03
2022-08-23T19:27:52.692Z,48.10
2022-08-23T19:30:22.999Z,48.14
2022-08-23T19:32:55.367Z,48.28
2022-08-23T19:35:25.818Z,49.77
2022-08-23T19:38:00.368Z,48.89
2022-08-23T19:40:32.544Z,49.46
2022-08-23T19:43:09.012Z,49.37
2022-08-23T19:45:41.175Z,49.85
2022-08-23T19:48:21.122Z,50.42
2022-08-23T19:50:58.766Z,50.77
2022-08-23T19:53:27.168Z,49.90
2022-08-23T19:56:02.097Z,50.07
2022-08-23T19:58:36.837Z,50.16
2022-08-23T20:01:23.328Z,50.61
2022-08-23T20:04:02.994Z,51.90
2022-08-23T20:06:39.067Z,51.32
2022-08-23T20:09:27.099Z,51.14
2022-08-23T20:12:07.096Z,51.59
2022-08-23T20:14:53.543Z,51.99
2022-08-23T20:17:27.543Z,51.80
2022-08-23T20:20:00.656Z,51.84
2022-08-23T20:23:01.516Z,52.15
2022-08-23T20:25:32.422Z,51.90
2022-08-23T20:28:07.846Z,53.13
2022-08-23T20:30:43.412Z,53.67
2022-08-23T20:33:17.146Z,53.21
2022-08-23T20:35:57.053Z,52.27
2022-08-23T20:38:34.228Z,52.41
2022-08-23T20:41:09.216Z,53.33
2022-08-23T20:43:49.759Z,53.26
2022-08-23T20:46:20.821Z,52.79
2022-08-23T20:48:52.213Z,53.46
2022-08-23T20:51:28.134Z,53.28
2022-08-23T20:54:05.684Z,53.31
2022-08-23T20:56:44.426Z,53.12
2022-08-23T20:59:17.475Z,53.50
2022-08-23T21:01:51.656Z,54.27
2022-08-23T21:04:34.825Z,55.12
2022-08-23T21:07:09.885Z,54.95
2022-08-23T21:09:47.467Z,55.38
2022-08-23T21:12:24.461Z,55.83
2022-08-23T21:15:00.658Z,56.21
2022-08-23T21:17:44.064Z,55.56
2022-08-23T21:20:16.593Z,56.33
2022-08-23T21:22:46.171Z,55.93
2022-08-23T21:25:23.000Z,55.62
2022-08-23T21:28:05.711Z,55.18
2022-08-23T21:30:43.731Z,56.30
2022-08-23T21:33:23.751Z,54.97
2022-08-23T21:36:00.067Z,56.64
2022-08-23T21:38:33.007Z,57.05
2022-08-23T21:41:09.299Z,57.28
2022-08-23T21:43:41.005Z,56.16
2022-08-23T21:46:11.088Z,56.46
2022-08-23T21:48:39.105Z,55.88
2022-08-23T21:51:09.478Z,56.37
2022-08-23T21:53:42.030Z,55.77
2022-08-23T21:56:24.055Z,56.80
2022-08-23T21:59:04.808Z,56.98
2022-08-23T22:01:37.179Z,56.42
2022-08-23T22:04:13.251Z,56.04
2022-08-23T22:06:49.331Z,55.47
2022-08-23T22:09:27.946Z,55.16
2022-08-23T22:12:00.809Z,55.80
2022-08-23T22:14:37.782Z,55.45
2022-08-23T22:17:08.836Z,55.21
2022-08-23T22:19:49.381Z,55.65
2022-08-23T22:22:20.586Z,55.62
2022-08-23T22:24:59.394Z,55.91
2022-08-23T22:27:32.309Z,55.50
2022-08-23T22:30:09.130Z,55.32
2022-08-23T22:32:42.135Z,55.23
2022-08-23T22:35:20.490Z,55.02
2022-08-23T22:38:12.657Z,54.84
2022-08-23T22:41:01.434Z,55.24
2022-08-23T22:43:42.098Z,55.57
2022-08-23T22:46:21.467Z,55.54
2022-08-23T22:48:59.517Z,56.59
2022-08-23T22:51:38.867Z,55.40
2022-08-23T22:54:15.628Z,55.28
2022-08-23T22:56:54.283Z,55.62
2022-08-23T22:59:45.427Z,56.00
2022-08-23T23:02:16.845Z,55.85
2022-08-23T23:04:46.344Z,55.48
2022-08-23T23:07:47.115Z,55.41
2022-08-23T23:10:21.402Z,55.21
2022-08-23T23:12:56.324Z,55.67
2022-08-23T23:15:26.910Z,56.00
2022-08-23T23:17:54.507Z,55.87
2022-08-23T23:20:40.642Z,55.92
2022-08-23T23:23:23.518Z,56.89
2022-08-23T23:25:54.083Z,56.73
2022-08-23T23:28:28.234Z,55.74
2022-08-23T23:30:59.638Z,55.49
2022-08-23T23:33:36.366Z,55.58
2022-08-23T23:36:04.095Z,54.68
2022-08-23T23:38:45.319Z,54.40
2022-08-23T23:41:13.897Z,53.49
2022-08-23T23:43:44.670Z,53.09
2022-08-23T23:46:15.080Z,53.53
2022-08-23T23:48:51.532Z,52.79
2022-08-23T23:51:23.219Z,53.13
2022-08-23T23:54:01.042Z,52.84
2022-08-23T23:56:32.839Z,52.36
